Time;durP1;ratioP1;P1;durP2;ratioP2;P2;SDS_P1;SDS_P2;PMS_P1;PMS_P2;Temp;Humidity;BMP_temperature;BMP_pressure;BME280_temperature;BME280_humidity;BME280_pressure;Samples;Min_cycle;Max_cycle;Signal;HPM_P1;HPM_P2
2022/10/26 00:02:20;;;;;;;33.28;25.27;;;13.00;99.90;;;;;;4767571;30;20053;-72
2022/10/26 00:04:46;;;;;;;41.33;26.73;;;12.90;99.90;;;;;;4766843;30;20127;-73
2022/10/26 00:07:12;;;;;;;38.60;26.23;;;12.90;99.90;;;;;;4768057;30;20135;-73
2022/10/26 00:09:38;;;;;;;39.35;23.42;;;12.90;99.90;;;;;;4766145;30;20509;-71
2022/10/26 00:12:04;;;;;;;31.48;21.13;;;12.90;99.90;;;;;;4767567;30;20024;-72
2022/10/26 00:14:33;;;;;;;30.45;22.70;;;12.80;99.90;;;;;;4780061;30;20035;-71
2022/10/26 00:16:59;;;;;;;34.28;23.08;;;12.80;99.90;;;;;;4767356;30;20475;-72
2022/10/26 00:19:25;;;;;;;33.20;21.88;;;12.80;99.90;;;;;;4766049;30;20065;-71
2022/10/26 00:21:51;;;;;;;31.38;21.77;;;12.70;99.90;;;;;;4767433;30;20032;-72
2022/10/26 00:24:18;;;;;;;29.35;19.88;;;12.70;99.90;;;;;;4769230;30;20063;-73
2022/10/26 00:26:44;;;;;;;35.65;21.73;;;12.70;99.90;;;;;;4768810;30;20066;-72
2022/10/26 00:29:13;;;;;;;28.15;18.23;;;12.70;99.90;;;;;;4767970;30;20036;-72
2022/10/26 00:31:39;;;;;;;30.10;18.88;;;12.70;99.90;;;;;;4767426;30;20479;-73
2022/10/26 00:34:05;;;;;;;29.30;20.67;;;12.70;99.90;;;;;;4767309;30;20117;-72
2022/10/26 00:36:31;;;;;;;29.13;20.27;;;12.60;99.90;;;;;;4767353;30;20038;-74
2022/10/26 00:38:57;;;;;;;30.92;18.90;;;12.60;99.90;;;;;;4767908;30;20044;-73
2022/10/26 00:41:26;;;;;;;28.42;17.30;;;12.50;99.90;;;;;;4767886;30;20394;-71
2022/10/26 00:43:52;;;;;;;34.58;26.50;;;12.50;99.90;;;;;;4767394;30;20379;-73
2022/10/26 00:46:26;;;;;;;28.40;20.67;;;12.50;99.90;;;;;;4767703;30;20538;-73
2022/10/26 00:48:57;;;;;;;26.48;17.63;;;12.40;99.90;;;;;;4767815;30;20105;-72
2022/10/26 00:51:33;;;;;;;35.28;21.38;;;12.40;99.90;;;;;;4767399;30;20047;-73
2022/10/26 00:54:05;;;;;;;31.17;19.33;;;12.40;99.90;;;;;;4767372;30;20107;-74
2022/10/26 00:56:33;;;;;;;34.17;20.63;;;12.50;99.90;;;;;;4750332;30;20407;-73
2022/10/26 00:59:05;;;;;;;32.40;20.38;;;12.50;99.90;;;;;;4767223;30;20111;-73
2022/10/26 01:01:34;;;;;;;22.55;17.67;;;12.50;99.90;;;;;;4770690;30;20032;-74
2022/10/26 01:03:59;;;;;;;29.77;20.00;;;12.50;99.90;;;;;;4770751;30;20039;-73
2022/10/26 01:06:29;;;;;;;25.67;17.63;;;12.50;99.90;;;;;;4770427;30;20048;-75
2022/10/26 01:08:55;;;;;;;35.92;20.40;;;12.50;99.90;;;;;;4771774;30;20043;-75
2022/10/26 01:11:22;;;;;;;26.63;17.23;;;12.50;99.90;;;;;;4751275;30;20457;-74
2022/10/26 01:13:51;;;;;;;31.25;18.92;;;12.50;99.90;;;;;;4773815;30;20593;-74
2022/10/26 01:16:25;;;;;;;25.75;16.33;;;12.50;99.90;;;;;;4774382;30;20047;-75
2022/10/26 01:19:04;;;;;;;26.42;15.73;;;12.50;99.90;;;;;;4770612;30;20036;-74
2022/10/26 01:21:42;;;;;;;29.02;19.25;;;12.40;99.90;;;;;;4770510;30;20403;-75
2022/10/26 01:24:31;;;;;;;27.55;18.23;;;12.30;99.90;;;;;;4769684;30;20028;-74
2022/10/26 01:27:13;;;;;;;25.92;18.02;;;12.30;99.90;;;;;;4769710;30;20050;-74
2022/10/26 01:30:09;;;;;;;26.73;17.98;;;12.30;99.90;;;;;;4762230;30;20028;-73
2022/10/26 01:32:58;;;;;;;29.50;18.67;;;12.20;99.90;;;;;;4770478;30;20043;-73
2022/10/26 01:35:48;;;;;;;28.73;19.05;;;12.30;99.90;;;;;;4780144;30;20118;-73
2022/10/26 01:38:36;;;;;;;25.75;14.93;;;12.20;99.90;;;;;;4761563;30;20062;-74
2022/10/26 01:41:02;;;;;;;23.65;14.73;;;12.10;99.90;;;;;;4770434;30;20119;-74
2022/10/26 01:43:33;;;;;;;27.40;17.20;;;12.10;99.90;;;;;;4770234;30;20111;-73
2022/10/26 01:46:00;;;;;;;29.75;19.02;;;12.10;99.90;;;;;;4770297;30;20074;-74
2022/10/26 01:48:28;;;;;;;31.23;18.00;;;12.10;99.90;;;;;;4769901;30;20115;-74
2022/10/26 01:50:56;;;;;;;29.08;17.30;;;12.10;99.90;;;;;;4769972;30;20067;-74
2022/10/26 01:53:25;;;;;;;22.92;15.48;;;12.10;99.90;;;;;;4773207;30;20356;-74
2022/10/26 01:55:52;;;;;;;27.27;16.20;;;12.10;99.90;;;;;;4778355;30;20039;-74
2022/10/26 01:58:47;;;;;;;40.40;26.35;;;12.00;99.90;;;;;;4769979;30;20036;-74
2022/10/26 02:01:32;;;;;;;26.65;15.95;;;12.00;99.90;;;;;;4769992;30;20047;-73
2022/10/26 02:04:13;;;;;;;27.90;16.92;;;12.00;99.90;;;;;;4770123;30;20039;-74
2022/10/26 02:06:54;;;;;;;22.13;14.45;;;12.00;99.90;;;;;;4769190;30;20458;-74
2022/10/26 02:09:32;;;;;;;34.28;16.58;;;12.00;99.90;;;;;;4769904;30;20032;-74
2022/10/26 02:12:01;;;;;;;28.48;15.20;;;11.90;99.90;;;;;;4769891;30;20044;-73
2022/10/26 02:14:50;;;;;;;20.10;13.23;;;11.90;99.90;;;;;;4771878;30;20024;-73
2022/10/26 02:17:32;;;;;;;21.40;12.57;;;11.90;99.90;;;;;;4772897;30;20043;-73
2022/10/26 02:20:06;;;;;;;24.17;14.23;;;11.90;99.90;;;;;;4769742;30;20036;-74
2022/10/26 02:22:38;;;;;;;20.45;12.05;;;11.80;99.90;;;;;;4769471;30;20036;-73
2022/10/26 02:25:13;;;;;;;24.33;11.95;;;11.80;99.90;;;;;;4769501;30;20082;-73
2022/10/26 02:27:43;;;;;;;29.63;11.32;;;11.80;99.90;;;;;;4768978;30;20078;-74
2022/10/26 02:30:10;;;;;;;15.40;8.88;;;11.60;99.90;;;;;;4769477;30;20115;-73
2022/10/26 02:32:40;;;;;;;19.02;9.23;;;11.60;99.90;;;;;;4768927;30;20039;-73
2022/10/26 02:35:06;;;;;;;22.17;11.70;;;11.60;99.90;;;;;;4769298;30;20048;-74
2022/10/26 02:37:35;;;;;;;19.90;10.63;;;11.60;99.90;;;;;;4753027;30;20070;-74
2022/10/26 02:40:06;;;;;;;18.05;11.05;;;11.70;99.90;;;;;;4769276;30;20076;-74
2022/10/26 02:42:33;;;;;;;17.00;8.93;;;11.60;99.90;;;;;;4769071;30;20492;-73
2022/10/26 02:45:04;;;;;;;16.55;9.95;;;11.50;99.90;;;;;;4769193;30;20119;-74
2022/10/26 02:47:32;;;;;;;16.83;9.57;;;11.50;99.90;;;;;;4745789;30;20044;-74
2022/10/26 02:49:58;;;;;;;22.83;13.68;;;11.60;99.90;;;;;;4768491;30;20044;-74
2022/10/26 02:52:46;;;;;;;22.15;13.40;;;11.60;99.90;;;;;;4768861;30;20073;-74
2022/10/26 02:55:22;;;;;;;24.83;14.05;;;11.60;99.90;;;;;;4768902;30;20063;-74
2022/10/26 02:57:53;;;;;;;24.90;10.52;;;11.60;99.90;;;;;;4768740;30;20080;-74
2022/10/26 03:00:19;;;;;;;16.73;8.77;;;11.60;99.90;;;;;;4769056;30;20036;-75
2022/10/26 03:02:51;;;;;;;16.08;8.73;;;11.60;99.90;;;;;;4768613;30;20091;-73
2022/10/26 03:05:24;;;;;;;15.18;8.05;;;11.60;99.90;;;;;;4768600;30;20130;-73
2022/10/26 03:07:50;;;;;;;18.05;10.45;;;11.50;99.90;;;;;;4768621;30;20036;-73
2022/10/26 03:10:17;;;;;;;19.80;9.15;;;11.50;99.90;;;;;;4769091;30;20028;-74
2022/10/26 03:12:43;;;;;;;14.60;8.90;;;11.50;99.90;;;;;;4768883;30;20418;-73
2022/10/26 03:15:09;;;;;;;18.50;9.02;;;11.50;99.90;;;;;;4781656;30;20071;-73
2022/10/26 03:17:34;;;;;;;15.70;9.15;;;11.50;99.90;;;;;;4780220;30;20051;-74
2022/10/26 03:20:00;;;;;;;21.63;9.52;;;11.40;99.90;;;;;;4768464;30;20395;-73
2022/10/26 03:22:26;;;;;;;16.38;9.57;;;11.40;99.90;;;;;;4767847;30;20528;-73
2022/10/26 03:24:52;;;;;;;21.85;9.45;;;11.40;99.90;;;;;;4767392;30;20035;-74
2022/10/26 03:27:18;;;;;;;15.80;8.48;;;11.30;99.90;;;;;;4767718;30;20036;-73
2022/10/26 03:29:44;;;;;;;16.08;8.27;;;11.40;99.90;;;;;;4768062;30;20050;-73
2022/10/26 03:32:10;;;;;;;15.00;7.30;;;11.30;99.90;;;;;;4769244;30;20036;-73
2022/10/26 03:34:35;;;;;;;13.25;7.15;;;11.30;99.90;;;;;;4768322;30;20127;-72
2022/10/26 03:37:04;;;;;;;15.90;9.13;;;11.30;99.90;;;;;;4768305;30;20099;-73
2022/10/26 03:39:30;;;;;;;28.42;14.18;;;11.30;99.90;;;;;;4767579;30;20032;-74
2022/10/26 03:41:56;;;;;;;23.42;11.77;;;11.30;99.90;;;;;;4768649;30;20088;-73
2022/10/26 03:44:22;;;;;;;36.60;14.20;;;11.40;99.90;;;;;;4767821;30;20103;-73
2022/10/26 03:46:48;;;;;;;25.10;14.30;;;11.40;99.90;;;;;;4766794;30;20490;-72
2022/10/26 03:49:14;;;;;;;23.17;12.98;;;11.30;99.90;;;;;;4766924;30;20066;-72
2022/10/26 03:51:40;;;;;;;25.98;14.02;;;11.30;99.90;;;;;;4766459;30;20075;-72
2022/10/26 03:54:05;;;;;;;25.05;13.48;;;11.30;99.90;;;;;;4766431;30;20035;-72
2022/10/26 03:56:32;;;;;;;26.00;13.50;;;11.30;99.90;;;;;;4768095;30;20038;-73
2022/10/26 03:58:58;;;;;;;21.80;12.75;;;11.30;99.90;;;;;;4736295;30;20043;-72
2022/10/26 04:01:24;;;;;;;20.73;11.13;;;11.20;99.90;;;;;;4767054;30;20032;-72
2022/10/26 04:03:50;;;;;;;18.20;10.73;;;11.20;99.90;;;;;;4766333;30;20400;-73
2022/10/26 04:06:17;;;;;;;30.73;15.57;;;11.30;99.90;;;;;;4768725;30;20127;-72
2022/10/26 04:08:43;;;;;;;39.00;22.55;;;11.20;99.90;;;;;;4754125;30;20122;-72
2022/10/26 04:11:12;;;;;;;31.92;17.42;;;11.20;99.90;;;;;;4767568;30;20161;-72
2022/10/26 04:13:39;;;;;;;38.25;14.80;;;11.20;99.90;;;;;;4775461;30;20031;-72
2022/10/26 04:16:05;;;;;;;27.08;12.98;;;11.20;99.90;;;;;;4764621;30;20046;-72
2022/10/26 04:18:31;;;;;;;28.13;15.38;;;11.20;99.90;;;;;;4780966;30;20059;-72
2022/10/26 04:21:01;;;;;;;27.00;17.00;;;11.20;99.90;;;;;;4769704;30;20044;-72
2022/10/26 04:23:27;;;;;;;46.15;29.10;;;11.20;99.90;;;;;;4784979;30;20443;-72
2022/10/26 04:25:53;;;;;;;37.72;25.75;;;11.10;99.90;;;;;;4780716;30;20083;-73
2022/10/26 04:28:19;;;;;;;33.17;21.52;;;11.20;99.90;;;;;;4771820;30;20399;-72
2022/10/26 04:30:46;;;;;;;32.63;17.80;;;11.20;99.90;;;;;;4765264;30;20043;-72
2022/10/26 04:33:12;;;;;;;23.88;13.65;;;11.20;99.90;;;;;;4767379;30;20114;-72
2022/10/26 04:35:38;;;;;;;17.63;10.50;;;11.20;99.90;;;;;;4759878;30;20110;-72
2022/10/26 04:38:06;;;;;;;32.95;19.77;;;11.10;99.90;;;;;;4771012;30;20512;-72
2022/10/26 04:40:33;;;;;;;30.55;18.52;;;11.10;99.90;;;;;;4770821;30;20035;-72
2022/10/26 04:42:59;;;;;;;27.35;15.80;;;11.00;99.90;;;;;;4770946;30;20107;-72
2022/10/26 04:45:27;;;;;;;22.42;15.25;;;11.00;99.90;;;;;;4770269;30;20043;-72
2022/10/26 04:48:01;;;;;;;22.98;13.90;;;10.90;99.90;;;;;;4770972;30;20449;-72
2022/10/26 04:50:27;;;;;;;34.90;17.80;;;11.00;99.90;;;;;;4770838;30;20044;-74
2022/10/26 04:52:53;;;;;;;26.40;10.95;;;10.90;99.90;;;;;;4770628;30;20059;-74
2022/10/26 04:55:19;;;;;;;17.50;11.52;;;10.80;99.90;;;;;;4770944;30;20059;-73
2022/10/26 04:57:45;;;;;;;19.45;10.80;;;10.80;99.90;;;;;;4770198;30;20016;-73
2022/10/26 05:00:11;;;;;;;26.83;12.20;;;10.80;99.90;;;;;;4770913;30;20052;-73
2022/10/26 05:02:37;;;;;;;22.83;11.75;;;10.90;99.90;;;;;;4770507;30;20122;-73
2022/10/26 05:05:03;;;;;;;26.42;13.57;;;10.80;99.90;;;;;;4770481;30;20122;-74
2022/10/26 05:07:32;;;;;;;26.17;12.40;;;10.80;99.90;;;;;;4770328;30;20032;-73
2022/10/26 05:09:58;;;;;;;20.52;12.15;;;10.70;99.90;;;;;;4755395;30;20028;-72
2022/10/26 05:12:28;;;;;;;17.73;11.82;;;10.60;99.90;;;;;;4771453;30;20023;-73
2022/10/26 05:14:57;;;;;;;19.95;10.85;;;10.50;99.90;;;;;;4783212;30;20031;-72
2022/10/26 05:17:26;;;;;;;26.85;10.68;;;10.50;99.90;;;;;;4771228;30;20035;-73
2022/10/26 05:19:54;;;;;;;21.35;11.32;;;10.40;99.90;;;;;;4770343;30;20044;-73
2022/10/26 05:22:21;;;;;;;20.83;11.23;;;10.40;99.90;;;;;;4770632;30;20040;-73
2022/10/26 05:24:47;;;;;;;29.00;11.93;;;10.60;99.90;;;;;;4770153;30;20047;-74
2022/10/26 05:27:13;;;;;;;22.00;12.13;;;10.90;99.90;;;;;;4770338;30;20380;-74
2022/10/26 05:29:38;;;;;;;19.15;12.77;;;11.30;99.90;;;;;;4770590;30;20586;-74
2022/10/26 05:32:04;;;;;;;21.58;14.13;;;11.70;99.90;;;;;;4769940;30;20138;-73
2022/10/26 05:34:30;;;;;;;22.50;14.20;;;11.90;99.90;;;;;;4770313;30;20764;-74
2022/10/26 05:36:56;;;;;;;21.38;13.30;;;11.70;99.90;;;;;;4770130;30;20031;-73
2022/10/26 05:39:21;;;;;;;27.23;18.15;;;11.70;99.90;;;;;;4770040;30;20030;-73
2022/10/26 05:41:47;;;;;;;25.85;15.60;;;11.60;99.90;;;;;;4770003;30;20415;-74
2022/10/26 05:44:13;;;;;;;22.48;14.60;;;11.40;99.90;;;;;;4770188;30;20059;-74
2022/10/26 05:46:39;;;;;;;31.63;16.85;;;11.40;99.90;;;;;;4769459;30;20040;-74
2022/10/26 05:49:04;;;;;;;28.38;14.40;;;11.60;99.90;;;;;;4769805;30;20823;-74
2022/10/26 05:51:33;;;;;;;23.65;14.95;;;11.80;99.90;;;;;;4770179;30;20035;-74
2022/10/26 05:53:59;;;;;;;25.63;15.13;;;11.80;99.90;;;;;;4769904;30;20032;-74
2022/10/26 05:56:36;;;;;;;33.55;18.77;;;11.60;99.90;;;;;;4769831;30;20039;-74
2022/10/26 05:59:04;;;;;;;43.00;19.88;;;11.60;99.90;;;;;;4769724;30;20043;-74
2022/10/26 06:02:24;;;;;;;39.83;23.55;;;11.70;99.90;;;;;;4769471;30;20164;-74
2022/10/26 06:04:50;;;;;;;32.28;20.00;;;11.80;99.90;;;;;;4706480;30;20034;-74
2022/10/26 06:07:20;;;;;;;33.60;20.48;;;11.70;99.90;;;;;;4701775;30;20053;-74
2022/10/26 06:09:47;;;;;;;35.08;21.75;;;12.00;99.90;;;;;;4714528;30;20029;-73
2022/10/26 06:12:14;;;;;;;31.52;20.23;;;12.10;99.90;;;;;;4707883;30;20174;-74
2022/10/26 06:14:41;;;;;;;37.63;23.27;;;12.10;99.90;;;;;;4687188;30;20037;-73
2022/10/26 06:17:15;;;;;;;36.50;23.10;;;12.20;99.90;;;;;;4700955;30;20033;-74
2022/10/26 06:20:17;;;;;;;33.47;19.10;;;12.40;99.90;;;;;;4700111;30;20193;-74
2022/10/26 06:23:04;;;;;;;35.42;19.83;;;12.70;99.90;;;;;;4696137;30;20050;-74
2022/10/26 06:26:02;;;;;;;35.72;19.48;;;12.70;99.90;;;;;;4707504;30;20041;-73
2022/10/26 06:28:36;;;;;;;35.05;18.98;;;12.70;99.90;;;;;;4708275;30;20749;-73
2022/10/26 06:31:02;;;;;;;33.22;18.80;;;12.90;99.90;;;;;;4696608;30;20052;-73
2022/10/26 06:33:28;;;;;;;27.42;16.00;;;13.10;99.90;;;;;;4706990;30;20494;-74
2022/10/26 06:36:01;;;;;;;22.10;11.38;;;13.20;99.90;;;;;;4713923;30;20044;-74
2022/10/26 06:38:30;;;;;;;22.35;13.45;;;13.30;99.90;;;;;;4732781;30;20496;-74
2022/10/26 06:40:58;;;;;;;22.67;12.80;;;13.50;99.90;;;;;;4767131;30;20058;-74
2022/10/26 06:43:26;;;;;;;22.70;11.25;;;13.70;99.90;;;;;;4766720;30;20043;-74
2022/10/26 06:46:07;;;;;;;19.30;9.80;;;13.80;99.90;;;;;;4767671;30;20396;-74
2022/10/26 06:48:52;;;;;;;15.10;9.23;;;13.90;99.90;;;;;;4768851;30;20561;-74
2022/10/26 06:51:19;;;;;;;13.80;8.52;;;14.10;99.90;;;;;;4767560;30;20116;-74
2022/10/26 06:54:11;;;;;;;15.25;9.95;;;14.30;99.90;;;;;;4768325;30;20046;-74
2022/10/26 06:56:37;;;;;;;17.38;10.65;;;14.40;99.90;;;;;;4768789;30;20073;-74
2022/10/26 06:59:14;;;;;;;21.90;12.18;;;14.50;99.90;;;;;;4768242;30;20040;-74
2022/10/26 07:01:39;;;;;;;20.10;13.30;;;14.60;99.90;;;;;;4768760;30;20115;-74
2022/10/26 07:04:05;;;;;;;23.85;12.63;;;14.60;99.90;;;;;;4768172;30;20179;-74
2022/10/26 07:06:31;;;;;;;20.70;13.27;;;14.60;99.90;;;;;;4767591;30;20051;-74
2022/10/26 07:08:57;;;;;;;35.20;13.82;;;14.50;99.90;;;;;;4767437;30;20040;-75
2022/10/26 07:11:22;;;;;;;22.85;12.23;;;14.40;99.90;;;;;;4767873;30;20039;-75
2022/10/26 08:39:07;;;;;;;30.15;22.58;;;17.50;99.90;;;;;;5098633;27;20390;-74
2022/10/26 08:41:36;;;;;;;31.50;22.50;;;18.90;99.90;;;;;;5084317;28;20075;-74
2022/10/26 08:44:40;;;;;;;27.67;18.38;;;18.90;99.90;;;;;;5066858;28;20474;-74
2022/10/26 08:47:16;;;;;;;22.50;13.63;;;19.00;99.90;;;;;;5081631;28;20355;-74
2022/10/26 08:49:48;;;;;;;15.90;8.98;;;19.00;99.90;;;;;;5067636;28;20107;-75
2022/10/26 08:52:21;;;;;;;19.23;10.70;;;19.00;99.90;;;;;;5067494;28;20012;-74
2022/10/26 08:54:52;;;;;;;14.40;6.72;;;19.10;99.90;;;;;;5077950;28;20036;-74
2022/10/26 08:57:34;;;;;;;16.48;8.75;;;19.10;99.90;;;;;;5066921;28;20041;-75
2022/10/26 09:00:04;;;;;;;14.13;6.80;;;19.10;99.90;;;;;;5067291;28;20057;-74
2022/10/26 09:02:30;;;;;;;13.88;7.93;;;19.10;99.90;;;;;;5072263;28;20032;-74
2022/10/26 09:04:58;;;;;;;22.63;7.20;;;19.10;99.90;;;;;;5076014;28;20024;-74
2022/10/26 09:07:42;;;;;;;13.52;7.97;;;19.10;99.90;;;;;;5066637;28;20025;-74
2022/10/26 09:10:29;;;;;;;11.45;5.90;;;18.70;99.90;;;;;;5067205;28;20060;-74
2022/10/26 09:13:12;;;;;;;10.38;4.88;;;19.10;99.90;;;;;;5085891;28;20111;-74
2022/10/26 09:15:50;;;;;;;8.73;4.32;;;19.00;99.90;;;;;;5070701;28;20543;-74
2022/10/26 09:18:33;;;;;;;10.40;4.20;;;19.20;99.90;;;;;;5067061;28;20035;-74
2022/10/26 09:21:14;;;;;;;10.10;4.78;;;19.40;99.90;;;;;;5079706;28;20044;-74
2022/10/26 09:24:04;;;;;;;10.68;4.85;;;19.00;99.90;;;;;;5076460;28;20024;-74
2022/10/26 09:26:52;;;;;;;8.90;4.72;;;19.30;99.90;;;;;;5080121;28;20490;-74
2022/10/26 09:29:19;;;;;;;7.93;3.90;;;19.20;99.90;;;;;;5067678;28;20067;-74
2022/10/26 09:31:49;;;;;;;8.52;4.43;;;19.50;99.90;;;;;;5086780;28;20077;-75
2022/10/26 09:34:34;;;;;;;6.85;4.05;;;19.60;99.90;;;;;;5071166;28;20052;-74
2022/10/26 09:37:31;;;;;;;8.43;4.40;;;19.80;99.90;;;;;;5086404;28;20052;-75
2022/10/26 09:40:39;;;;;;;7.47;3.88;;;19.60;99.90;;;;;;5072260;28;20108;-73
2022/10/26 09:43:12;;;;;;;7.47;3.95;;;19.90;99.90;;;;;;5073320;28;20429;-74
2022/10/26 09:45:46;;;;;;;5.57;3.47;;;19.80;99.90;;;;;;5059033;28;20033;-74
2022/10/26 09:48:21;;;;;;;8.07;3.35;;;19.80;99.90;;;;;;5073057;28;20044;-74
2022/10/26 09:50:48;;;;;;;8.25;3.50;;;19.80;99.90;;;;;;5072423;28;20037;-74
2022/10/26 09:53:15;;;;;;;8.02;3.65;;;19.90;99.90;;;;;;5064399;28;20079;-74
2022/10/26 09:55:46;;;;;;;6.30;3.25;;;20.00;99.90;;;;;;5070285;28;20078;-74
2022/10/26 09:58:24;;;;;;;5.37;3.20;;;19.90;99.90;;;;;;5069505;28;20040;-75
2022/10/26 10:00:51;;;;;;;6.53;2.83;;;19.90;99.90;;;;;;5075396;28;20277;-74
2022/10/26 10:03:24;;;;;;;6.65;3.03;;;19.80;99.90;;;;;;5081325;28;20102;-74
2022/10/26 10:05:50;;;;;;;6.25;2.60;;;19.90;99.90;;;;;;5071449;28;20029;-74
2022/10/26 10:08:22;;;;;;;5.63;3.03;;;19.90;99.90;;;;;;5071421;28;20048;-73
2022/10/26 10:10:58;;;;;;;10.87;3.50;;;20.00;99.90;;;;;;5072538;28;20107;-74
2022/10/26 10:13:30;;;;;;;6.28;3.53;;;20.10;99.90;;;;;;5078894;28;20032;-74
2022/10/26 10:16:10;;;;;;;4.85;3.15;;;20.10;99.90;;;;;;5072976;28;20167;-73
2022/10/26 10:18:38;;;;;;;5.28;3.28;;;20.10;99.90;;;;;;5054554;28;20044;-73
2022/10/26 10:21:05;;;;;;;8.02;3.40;;;20.20;99.90;;;;;;5070219;28;20376;-73
2022/10/26 10:23:33;;;;;;;6.55;3.03;;;20.20;99.90;;;;;;5072665;28;20032;-73
2022/10/26 10:26:09;;;;;;;6.25;3.25;;;20.30;99.90;;;;;;5058172;28;20043;-73
2022/10/26 10:28:36;;;;;;;10.93;4.15;;;20.40;99.90;;;;;;5067802;28;20083;-74
2022/10/26 10:31:21;;;;;;;5.63;3.03;;;20.30;99.90;;;;;;5070760;28;20443;-73
2022/10/26 10:33:48;;;;;;;19.70;4.15;;;20.30;99.90;;;;;;5069795;28;20033;-73
2022/10/26 10:36:18;;;;;;;6.50;3.20;;;20.20;99.90;;;;;;5065665;28;20043;-73
2022/10/26 10:38:47;;;;;;;5.75;3.17;;;20.20;99.90;;;;;;5071010;28;20037;-74
2022/10/26 10:41:28;;;;;;;7.80;3.03;;;20.20;99.90;;;;;;5071580;28;20028;-74
2022/10/26 10:44:28;;;;;;;6.10;2.78;;;20.40;99.90;;;;;;5071948;28;20438;-73
2022/10/26 10:47:06;;;;;;;7.10;2.50;;;20.40;99.90;;;;;;5057247;28;20044;-74
2022/10/26 10:49:33;;;;;;;6.80;3.00;;;20.50;99.90;;;;;;5071565;28;20044;-74
2022/10/26 10:51:59;;;;;;;3.00;2.00;;;20.50;99.90;;;;;;5071016;28;20013;-74
2022/10/26 10:54:37;;;;;;;7.53;2.40;;;20.50;99.90;;;;;;5070671;28;20063;-74
2022/10/26 10:57:25;;;;;;;4.65;2.55;;;20.50;99.90;;;;;;5062096;28;20025;-74
2022/10/26 10:59:59;;;;;;;5.78;2.03;;;20.40;99.90;;;;;;5063074;28;20118;-74
2022/10/26 11:03:02;;;;;;;6.80;2.50;;;20.50;99.90;;;;;;5070012;28;20024;-74
2022/10/26 11:05:37;;;;;;;;;;;20.50;99.90;;;;;;5069562;28;20073;-74
2022/10/26 11:08:19;;;;;;;5.57;2.00;;;20.50;99.90;;;;;;5072730;28;20030;-74
2022/10/26 11:11:09;;;;;;;3.78;2.00;;;20.60;99.90;;;;;;5070372;28;20024;-73
2022/10/26 11:13:43;;;;;;;7.38;2.40;;;20.60;99.90;;;;;;5066122;28;20544;-73
2022/10/26 11:16:17;;;;;;;3.40;2.38;;;20.50;99.90;;;;;;5067758;28;20119;-74
2022/10/26 11:19:15;;;;;;;4.85;1.80;;;20.40;99.90;;;;;;5066810;28;20043;-74
2022/10/26 11:21:45;;;;;;;8.48;2.15;;;20.50;99.90;;;;;;5083516;28;20125;-73
2022/10/26 11:24:14;;;;;;;3.03;1.55;;;20.50;99.90;;;;;;5074878;28;20127;-73
2022/10/26 11:27:04;;;;;;;5.15;2.30;;;20.60;99.90;;;;;;5062242;28;20456;-74
2022/10/26 11:29:41;;;;;;;6.85;2.35;;;20.70;99.90;;;;;;5078044;28;20024;-74
2022/10/26 11:32:18;;;;;;;7.50;2.22;;;20.90;99.90;;;;;;5074482;28;20048;-73
2022/10/26 11:35:04;;;;;;;8.25;2.00;;;21.00;99.90;;;;;;5070837;28;20190;-74
2022/10/26 11:37:33;;;;;;;4.55;1.92;;;21.10;99.90;;;;;;5086886;28;20040;-73
2022/10/26 11:40:15;;;;;;;4.15;2.33;;;21.20;99.90;;;;;;5083931;28;20036;-74
2022/10/26 11:42:47;;;;;;;5.00;1.70;;;21.20;99.90;;;;;;5073355;28;20085;-73
2022/10/26 11:45:27;;;;;;;3.97;2.10;;;21.30;99.90;;;;;;5069397;28;20040;-73
2022/10/26 11:48:10;;;;;;;6.85;2.50;;;21.40;99.90;;;;;;5080690;28;20489;-73
2022/10/26 11:50:42;;;;;;;3.35;1.77;;;21.60;99.90;;;;;;5068472;28;20445;-74
2022/10/26 11:53:13;;;;;;;9.45;3.10;;;21.70;99.90;;;;;;5068160;28;20036;-73
2022/10/26 11:55:40;;;;;;;2.47;1.80;;;21.70;99.90;;;;;;5073100;28;20070;-73
2022/10/26 11:58:09;;;;;;;5.18;1.65;;;21.80;99.90;;;;;;5068675;28;20278;-73
2022/10/26 12:00:44;;;;;;;6.45;1.58;;;21.80;99.90;;;;;;5069142;28;20035;-73
2022/10/26 12:03:16;;;;;;;1.85;1.25;;;21.70;99.90;;;;;;5069319;28;20086;-73
2022/10/26 12:05:49;;;;;;;6.72;1.98;;;21.70;99.90;;;;;;5069585;28;20031;-73
2022/10/26 12:08:37;;;;;;;4.63;1.52;;;21.70;99.90;;;;;;5069403;28;20079;-73
2022/10/26 12:11:35;;;;;;;2.70;1.55;;;21.60;99.90;;;;;;5069184;28;20020;-73
2022/10/26 12:14:23;;;;;;;6.72;1.73;;;21.60;99.90;;;;;;5069011;28;20482;-74
2022/10/26 12:17:10;;;;;;;3.92;1.52;;;21.60;99.90;;;;;;5069611;28;20440;-73
2022/10/26 12:19:52;;;;;;;6.35;1.90;;;21.60;99.90;;;;;;5066127;28;20103;-73
2022/10/26 12:22:19;;;;;;;;;;;21.50;99.90;;;;;;5065125;28;20122;-73
2022/10/26 12:25:03;;;;;;;3.70;1.70;;;21.60;99.90;;;;;;5068820;28;19933;-73
2022/10/26 12:27:37;;;;;;;4.07;1.60;;;21.50;99.90;;;;;;5068231;28;20047;-74
2022/10/26 12:30:18;;;;;;;5.55;1.73;;;21.60;99.90;;;;;;5068177;28;20067;-73
2022/10/26 12:32:44;;;;;;;3.75;1.50;;;21.70;99.90;;;;;;5068419;28;20386;-73
2022/10/26 12:35:33;;;;;;;5.07;1.85;;;21.70;99.90;;;;;;5068895;28;20016;-74
2022/10/26 12:38:01;;;;;;;5.28;2.28;;;21.70;99.90;;;;;;5067283;28;20056;-73
2022/10/26 12:40:32;;;;;;;4.20;1.65;;;21.60;99.90;;;;;;5068294;28;20048;-74
2022/10/26 12:43:13;;;;;;;22.33;15.20;;;21.60;99.90;;;;;;5068431;28;20035;-74
2022/10/26 12:45:43;;;;;;;21.75;12.65;;;21.60;99.90;;;;;;5068172;28;20042;-74
2022/10/26 12:48:37;;;;;;;8.18;4.00;;;21.70;99.90;;;;;;5066768;28;20071;-74
2022/10/26 12:51:21;;;;;;;4.00;1.80;;;21.70;99.90;;;;;;5065319;28;20028;-73
2022/10/26 12:54:06;;;;;;;11.57;8.43;;;21.60;99.90;;;;;;5067961;28;20037;-74
2022/10/26 12:56:53;;;;;;;4.50;2.28;;;21.60;99.90;;;;;;5068510;28;20103;-73
2022/10/26 12:59:55;;;;;;;3.85;2.20;;;21.60;99.90;;;;;;5069904;28;20047;-74
2022/10/26 13:02:54;;;;;;;19.13;9.60;;;21.60;99.90;;;;;;5068990;28;20026;-74
2022/10/26 13:05:39;;;;;;;4.80;2.33;;;21.70;99.90;;;;;;5069827;28;20048;-74
2022/10/26 13:08:10;;;;;;;4.82;1.48;;;21.60;99.90;;;;;;5068419;28;20052;-74
2022/10/26 13:10:39;;;;;;;19.50;13.27;;;21.60;99.90;;;;;;5064565;28;20078;-75
2022/10/26 13:13:06;;;;;;;33.50;24.40;;;21.60;99.90;;;;;;5069235;28;20093;-74
2022/10/26 13:15:39;;;;;;;9.48;2.83;;;21.70;99.90;;;;;;5072977;28;20029;-74
2022/10/26 13:18:17;;;;;;;10.00;2.65;;;21.60;99.90;;;;;;5062677;28;20705;-74
2022/10/26 13:21:01;;;;;;;6.93;1.75;;;21.60;99.90;;;;;;5064548;28;20113;-74
2022/10/26 13:23:30;;;;;;;10.13;3.92;;;21.60;99.90;;;;;;5056779;28;20033;-73
2022/10/26 13:26:08;;;;;;;5.28;2.67;;;21.60;99.90;;;;;;5065198;28;20089;-74
2022/10/26 13:28:37;;;;;;;28.77;17.30;;;21.60;99.90;;;;;;5067481;28;20687;-74
2022/10/26 13:31:22;;;;;;;29.98;16.35;;;21.60;99.90;;;;;;5064023;28;20044;-74
2022/10/26 13:33:51;;;;;;;7.03;3.60;;;21.60;99.90;;;;;;5069603;28;20024;-74
2022/10/26 13:36:30;;;;;;;35.50;18.35;;;21.60;99.90;;;;;;5067507;28;20043;-74
2022/10/26 13:39:00;;;;;;;54.50;29.30;;;21.70;99.90;;;;;;5071247;28;20040;-74
2022/10/26 13:41:33;;;;;;;10.82;5.07;;;21.70;99.90;;;;;;5072140;28;20028;-73
2022/10/26 13:44:04;;;;;;;8.10;2.78;;;21.60;99.90;;;;;;5067022;28;20025;-74
2022/10/26 13:46:35;;;;;;;36.05;18.15;;;21.70;99.90;;;;;;5072920;28;20037;-73
2022/10/26 13:49:21;;;;;;;6.43;2.47;;;21.70;99.90;;;;;;5073085;28;20032;-75
2022/10/26 13:51:50;;;;;;;8.68;3.47;;;21.70;99.90;;;;;;5065932;28;20264;-75
2022/10/26 13:54:34;;;;;;;51.75;28.48;;;21.70;99.90;;;;;;5072866;28;20085;-74
2022/10/26 13:57:16;;;;;;;5.60;2.78;;;21.70;99.90;;;;;;5062698;28;20020;-74
2022/10/26 13:59:44;;;;;;;5.05;1.67;;;21.70;99.90;;;;;;5069636;28;20532;-75
2022/10/26 14:02:25;;;;;;;39.83;17.27;;;21.60;99.90;;;;;;5068644;28;20028;-74
2022/10/26 14:05:02;;;;;;;21.08;10.70;;;21.60;99.90;;;;;;5070996;28;20027;-75
2022/10/26 14:07:40;;;;;;;7.90;3.42;;;21.60;99.90;;;;;;5071825;28;20402;-74
2022/10/26 14:10:06;;;;;;;9.23;5.20;;;21.60;99.90;;;;;;5072164;28;20690;-74
2022/10/26 14:12:33;;;;;;;17.25;2.83;;;21.60;99.90;;;;;;5072304;28;20036;-75
2022/10/26 14:15:06;;;;;;;7.78;2.70;;;21.60;99.90;;;;;;5070286;28;20412;-74
2022/10/26 14:17:32;;;;;;;5.32;2.00;;;21.50;99.90;;;;;;5058025;28;20029;-75
2022/10/26 14:19:58;;;;;;;9.70;3.47;;;21.50;99.90;;;;;;5071864;28;20025;-75
2022/10/26 14:22:27;;;;;;;16.55;3.00;;;21.40;99.90;;;;;;5072124;28;20100;-74
2022/10/26 14:24:58;;;;;;;7.68;2.67;;;21.50;99.90;;;;;;5066461;28;20486;-74
2022/10/26 14:27:32;;;;;;;6.88;2.90;;;21.50;99.90;;;;;;5072297;28;20533;-75
2022/10/26 14:29:59;;;;;;;21.65;7.80;;;21.40;99.90;;;;;;5073714;28;20040;-76
2022/10/26 14:32:32;;;;;;;6.93;2.58;;;21.40;99.90;;;;;;5072768;28;20033;-75